Mabi IV — CRFG3 — position and weather

sailwx.info

Track history (hours):
 
Tides and Currents Weather Stations Pressure Air Temp Water Temp Dewpoint Dewpoint Depression Visibility Wind Speed Wind Dir Waves Ship Positions

Mabi IV

Last reported at 2017-Sep-17 17:23 UTC. Time now 2017-Sep-22 22:41 UTC.
Position N 38°42' W 009°11'.

Length 12 m.

Type: Sailing vessel. MMSI: 263941790.

Date/timePositionNaut miles runAvg speedWind from/ knotsBaromVisibWave heightAir tempDewpointWater temp
2017-Sep-17 17:23N 38°42' W 009°11'2 3.0
2017-Sep-17 16:51N 38°41' W 009°13'1 4.1
2017-Sep-17 16:30N 38°41' W 009°15'2 4.5
2017-Sep-17 15:59N 38°41' W 009°17'2 0.5
2017-Sep-17 12:53N 38°40' W 009°19'0 0.0
2017-Sep-17 12:23N 38°40' W 009°19'0 0.1
2017-Sep-17 11:09N 38°40' W 009°19'1 5.5
2017-Sep-17 10:58N 38°41' W 009°18'2 3.9
2017-Sep-17 10:29N 38°41' W 009°16'2 3.5
2017-Sep-17 09:58N 38°41' W 009°13'2 0.1
2017-Sep-16 16:20N 38°42' W 009°11'3 1.6
2017-Sep-16 14:24N 38°40' W 009°08'2 4.1
2017-Sep-16 13:58N 38°42' W 009°09'2 3.6
2017-Sep-16 13:28N 38°41' W 009°11'  
2017-Sep-10 14:31N 38°42' W 009°09'3 6.0
2017-Sep-10 13:56N 38°41' W 009°13'3 7.6
2017-Sep-10 13:30N 38°41' W 009°17'2 0.8
2017-Sep-10 11:19N 38°40' W 009°19'1 4.7
2017-Sep-10 11:00N 38°41' W 009°18'5 0.4
2017-Sep-09 19:39N 38°42' W 009°11'1 3.1
2017-Sep-09 19:27N 38°42' W 009°11'0 0.0
2017-Sep-07 19:25N 38°42' W 009°11'1 1.4
2017-Sep-07 19:00N 38°42' W 009°11'  
Track history (hours):
 
Tides and Currents Weather Stations Pressure Air Temp Water Temp Dewpoint Dewpoint Depression Visibility Wind Speed Wind Dir Waves Ship Positions

Mabi IV

Last reported at 2017-Sep-17 17:23 UTC. Time now 2017-Sep-22 22:41 UTC.
Position N 38°42' W 009°11'.

Length 12 m.

Type: Sailing vessel. MMSI: 263941790.

Date/timePositionNaut miles runAvg speedWind from/ knotsBaromVisibWave heightAir tempDewpointWater temp
2017-Sep-17 17:23N 38°42' W 009°11'2 3.0
2017-Sep-17 16:51N 38°41' W 009°13'1 4.1
2017-Sep-17 16:30N 38°41' W 009°15'2 4.5
2017-Sep-17 15:59N 38°41' W 009°17'2 0.5
2017-Sep-17 12:53N 38°40' W 009°19'0 0.0
2017-Sep-17 12:23N 38°40' W 009°19'0 0.1
2017-Sep-17 11:09N 38°40' W 009°19'1 5.5
2017-Sep-17 10:58N 38°41' W 009°18'2 3.9
2017-Sep-17 10:29N 38°41' W 009°16'2 3.5
2017-Sep-17 09:58N 38°41' W 009°13'2 0.1
2017-Sep-16 16:20N 38°42' W 009°11'3 1.6
2017-Sep-16 14:24N 38°40' W 009°08'2 4.1
2017-Sep-16 13:58N 38°42' W 009°09'2 3.6
2017-Sep-16 13:28N 38°41' W 009°11'  
2017-Sep-10 14:31N 38°42' W 009°09'3 6.0
2017-Sep-10 13:56N 38°41' W 009°13'3 7.6
2017-Sep-10 13:30N 38°41' W 009°17'2 0.8
2017-Sep-10 11:19N 38°40' W 009°19'1 4.7
2017-Sep-10 11:00N 38°41' W 009°18'5 0.4
2017-Sep-09 19:39N 38°42' W 009°11'1 3.1
2017-Sep-09 19:27N 38°42' W 009°11'0 0.0
2017-Sep-07 19:25N 38°42' W 009°11'1 1.4
2017-Sep-07 19:00N 38°42' W 009°11'  

Dump ship's entire track history